Time;durP1;ratioP1;P1;durP2;ratioP2;P2;SDS_P1;SDS_P2;PMS_P1;PMS_P2;Temp;Humidity;BMP_temperature;BMP_pressure;BME280_temperature;BME280_humidity;BME280_pressure;Samples;Min_cycle;Max_cycle;Signal;HPM_P1;HPM_P2
2022/06/10 00:01:11;;;;;;;10.90;2.67;;;-40.00;97.10;;;;;;5137221;27;20178;-78
2022/06/10 00:03:37;;;;;;;5.90;2.10;;;-40.00;97.70;;;;;;5137208;27;20549;-74
2022/06/10 00:06:06;;;;;;;10.17;1.63;;;-40.00;97.00;;;;;;5136977;27;20495;-73
2022/06/10 00:08:35;;;;;;;14.80;3.83;;;-40.00;97.50;;;;;;5137048;27;20189;-78
2022/06/10 00:11:03;;;;;;;14.07;3.03;;;-40.00;98.00;;;;;;5136906;27;20231;-72
2022/06/10 00:13:33;;;;;;;5.17;2.17;;;-40.00;98.10;;;;;;5136080;27;20640;-72
2022/06/10 00:15:59;;;;;;;13.93;3.13;;;-40.00;97.80;;;;;;5136920;27;20165;-70
2022/06/10 00:18:28;;;;;;;4.77;1.93;;;-40.00;97.80;;;;;;5137109;27;20182;-71
2022/06/10 00:20:54;;;;;;;5.77;2.37;;;-40.00;97.60;;;;;;5135642;27;20587;-68
2022/06/10 00:23:20;;;;;;;10.47;3.20;;;-40.00;97.70;;;;;;5135893;27;20173;-73
2022/06/10 00:25:46;;;;;;;3.83;2.07;;;-40.00;98.40;;;;;;5135669;27;20252;-71
2022/06/10 00:28:13;;;;;;;8.77;2.77;;;-40.00;98.30;;;;;;5136972;27;20170;-71
2022/06/10 00:30:40;;;;;;;9.53;2.90;;;-40.00;98.80;;;;;;5136717;27;20572;-67
2022/06/10 00:33:06;;;;;;;7.60;2.10;;;-40.00;98.70;;;;;;5136736;27;20196;-70
2022/06/10 00:35:32;;;;;;;6.30;2.97;;;-40.00;98.50;;;;;;5136243;27;20230;-67
2022/06/10 00:37:58;;;;;;;11.53;3.33;;;-40.00;98.80;;;;;;5136640;27;20185;-68
2022/06/10 00:40:37;;;;;;;8.73;2.77;;;-40.00;98.60;;;;;;5136636;27;20537;-67
2022/06/10 00:43:03;;;;;;;6.47;2.77;;;-40.00;98.40;;;;;;5136686;27;20166;-70
2022/06/10 00:46:12;;;;;;;9.80;3.07;;;-40.00;98.90;;;;;;5136461;27;20158;-70
2022/06/10 00:49:09;;;;;;;7.60;3.20;;;-40.00;99.20;;;;;;5136613;27;20161;-68
2022/06/10 00:51:42;;;;;;;7.57;2.37;;;-40.00;98.80;;;;;;5136495;27;20193;-73
2022/06/10 00:54:46;;;;;;;7.57;2.00;;;-40.00;99.80;;;;;;5138018;27;20365;-65
2022/06/10 00:57:31;;;;;;;6.67;2.00;;;-40.00;98.90;;;;;;5138486;27;20329;-68
2022/06/10 01:00:08;;;;;;;6.97;2.23;;;-40.00;98.90;;;;;;5140655;27;20252;-68
2022/06/10 01:02:35;;;;;;;6.93;3.10;;;-40.00;99.10;;;;;;5140603;27;20173;-68
2022/06/10 01:05:05;;;;;;;15.73;3.97;;;-40.00;99.00;;;;;;5140148;27;20596;-74
2022/06/10 01:07:35;;;;;;;5.27;1.97;;;-40.00;99.90;;;;;;5140483;27;20256;-70
2022/06/10 01:10:06;;;;;;;13.10;2.77;;;-40.00;99.60;;;;;;5140468;27;20189;-68
2022/06/10 01:12:40;;;;;;;3.77;2.37;;;-40.00;99.90;;;;;;5139254;27;20204;-66
2022/06/10 01:15:25;;;;;;;5.77;2.43;;;-40.00;99.90;;;;;;5140465;27;20175;-71
2022/06/10 01:18:21;;;;;;;4.50;2.33;;;-40.00;99.90;;;;;;5140113;27;20255;-67
2022/06/10 01:20:52;;;;;;;10.20;2.70;;;-40.00;99.90;;;;;;5140399;27;20222;-72
2022/06/10 01:23:40;;;;;;;5.23;2.33;;;-40.00;99.90;;;;;;5139276;27;20510;-68
2022/06/10 01:26:27;;;;;;;6.30;2.17;;;-40.00;99.80;;;;;;5140111;27;20196;-71
2022/06/10 01:29:27;;;;;;;6.00;2.50;;;-40.00;99.90;;;;;;5139173;27;20261;-71
2022/06/10 01:32:02;;;;;;;6.27;2.40;;;-39.10;99.90;;;;;;5139867;27;20189;-65
2022/06/10 01:34:41;;;;;;;7.77;2.13;;;-40.00;99.90;;;;;;5139699;27;20251;-67
2022/06/10 01:37:22;;;;;;;10.87;2.33;;;-40.00;99.90;;;;;;5138649;27;20189;-70
2022/06/10 01:39:53;;;;;;;6.27;2.60;;;-34.00;99.90;;;;;;5139975;27;20252;-73
2022/06/10 01:42:28;;;;;;;8.80;3.13;;;-35.20;99.90;;;;;;5139786;27;20245;-68
2022/06/10 01:45:50;;;;;;;7.23;2.67;;;-30.90;99.90;;;;;;5139525;27;20173;-67
2022/06/10 01:48:45;;;;;;;11.50;3.23;;;-28.40;99.90;;;;;;5096344;28;20179;-68
2022/06/10 01:51:27;;;;;;;18.77;3.70;;;-38.70;99.90;;;;;;5139382;27;20209;-65
2022/06/10 01:54:16;;;;;;;5.73;2.63;;;-35.00;99.90;;;;;;5139517;27;20173;-66
2022/06/10 01:56:45;;;;;;;9.53;3.07;;;-39.50;99.90;;;;;;5139706;27;20170;-67
2022/06/10 01:59:34;;;;;;;6.50;3.20;;;-40.00;99.90;;;;;;5139469;27;20765;-67
2022/06/10 02:02:07;;;;;;;4.73;2.53;;;-40.00;99.90;;;;;;5137874;27;20572;-66
2022/06/10 02:04:39;;;;;;;8.70;2.53;;;-40.00;99.90;;;;;;5139345;27;20165;-67
2022/06/10 02:07:42;;;;;;;5.23;2.37;;;-33.80;99.90;;;;;;5138581;27;20256;-69
2022/06/10 02:10:22;;;;;;;11.20;2.27;;;-40.00;99.90;;;;;;5138300;27;20176;-65
2022/06/10 02:12:55;;;;;;;10.30;4.57;;;-40.00;99.90;;;;;;5139128;27;20282;-68
2022/06/10 02:15:32;;;;;;;11.00;3.57;;;-40.00;99.90;;;;;;5138219;27;20245;-67
2022/06/10 02:18:13;;;;;;;7.57;2.77;;;-40.00;99.90;;;;;;5138827;27;20218;-69
2022/06/10 02:20:47;;;;;;;7.20;2.53;;;-40.00;99.90;;;;;;5139297;27;20157;-75
2022/06/10 02:23:18;;;;;;;6.57;2.80;;;-40.00;99.90;;;;;;5139099;27;20185;-66
2022/06/10 02:25:48;;;;;;;9.57;2.30;;;-40.00;99.90;;;;;;5139066;27;20173;-66
2022/06/10 02:28:19;;;;;;;11.20;4.13;;;-40.00;99.90;;;;;;5138951;27;20170;-68
2022/06/10 02:31:19;;;;;;;7.43;2.00;;;-40.00;99.90;;;;;;5138588;27;20174;-72
2022/06/10 02:33:48;;;;;;;6.60;2.10;;;-40.00;99.90;;;;;;5138825;27;20158;-72
2022/06/10 02:36:30;;;;;;;9.57;3.40;;;-40.00;99.90;;;;;;5137617;27;20185;-66
2022/06/10 02:39:12;;;;;;;8.40;2.37;;;-40.00;99.90;;;;;;5138699;27;20181;-66
2022/06/10 02:41:55;;;;;;;8.40;2.53;;;-40.00;99.90;;;;;;5138720;27;20204;-70
2022/06/10 02:44:43;;;;;;;4.87;2.73;;;-40.00;99.90;;;;;;5138522;27;20214;-67
2022/06/10 02:47:40;;;;;;;10.40;3.27;;;-40.00;99.90;;;;;;5138683;27;20514;-65
2022/06/10 02:50:09;;;;;;;5.27;2.33;;;-40.00;99.90;;;;;;5138596;27;20184;-70
2022/06/10 02:52:36;;;;;;;11.10;3.10;;;-40.00;99.90;;;;;;5138556;27;20254;-69
2022/06/10 02:55:04;;;;;;;5.53;3.00;;;-40.00;99.90;;;;;;5138407;27;20193;-67
2022/06/10 03:03:11;;;;;;;7.50;2.27;;;-40.00;99.90;;;;;;5138539;27;20231;-67
2022/06/10 03:06:01;;;;;;;7.77;2.70;;;-40.00;99.90;;;;;;5138107;27;20233;-67
2022/06/10 03:08:40;;;;;;;10.17;2.17;;;-40.00;99.90;;;;;;5138287;27;20205;-75
2022/06/10 03:11:38;;;;;;;9.20;2.30;;;-40.00;99.90;;;;;;5137989;27;20193;-66
2022/06/10 03:14:22;;;;;;;4.13;2.43;;;-40.00;99.90;;;;;;5128736;27;20184;-66
2022/06/10 03:16:59;;;;;;;10.87;2.97;;;-40.00;99.90;;;;;;5137672;27;20485;-68
2022/06/10 03:19:31;;;;;;;7.70;2.67;;;-40.00;99.90;;;;;;5137528;27;20162;-74
2022/06/10 03:22:33;;;;;;;5.10;2.00;;;-40.00;99.90;;;;;;5137996;27;20477;-72
2022/06/10 03:25:28;;;;;;;5.40;2.23;;;-40.00;99.90;;;;;;5137649;27;20204;-66
2022/06/10 03:27:58;;;;;;;5.20;1.80;;;-40.00;99.90;;;;;;5128778;27;20185;-69
2022/06/10 03:30:33;;;;;;;9.93;2.13;;;-40.00;99.90;;;;;;5137501;27;20175;-70
2022/06/10 03:33:22;;;;;;;5.70;2.47;;;-40.00;99.90;;;;;;5137540;27;20196;-70
2022/06/10 03:36:00;;;;;;;6.03;2.63;;;-40.00;99.90;;;;;;5137698;27;20170;-76
2022/06/10 03:38:27;;;;;;;9.17;2.53;;;-40.00;99.90;;;;;;5137630;27;20238;-77
2022/06/10 03:40:56;;;;;;;4.43;2.17;;;-40.00;99.90;;;;;;5137591;27;20169;-73
2022/06/10 03:43:22;;;;;;;6.07;2.67;;;-40.00;99.90;;;;;;5137320;27;20200;-71
2022/06/10 03:45:59;;;;;;;5.87;1.93;;;-40.00;99.90;;;;;;5137374;27;20161;-74
2022/06/10 03:48:27;;;;;;;4.20;1.77;;;-40.00;99.90;;;;;;5137405;27;20185;-75
2022/06/10 03:50:53;;;;;;;7.97;3.13;;;-40.00;99.90;;;;;;5137245;27;20252;-72
2022/06/10 03:53:24;;;;;;;6.17;1.40;;;-40.00;99.90;;;;;;5137392;27;20166;-72
2022/06/10 03:55:49;;;;;;;4.60;2.53;;;-40.00;99.90;;;;;;5137285;27;20165;-70
2022/06/10 03:58:16;;;;;;;7.43;3.57;;;-38.70;99.90;;;;;;5137214;27;20311;-72
2022/06/10 04:00:43;;;;;;;3.80;1.93;;;-40.00;99.90;;;;;;5137125;27;20166;-77
2022/06/10 04:03:10;;;;;;;6.40;1.73;;;-40.00;99.90;;;;;;5137311;27;20170;-71
2022/06/10 04:05:36;;;;;;;6.07;2.13;;;-40.00;99.90;;;;;;5136979;27;20187;-68
2022/06/10 04:08:01;;;;;;;9.70;1.87;;;-40.00;99.90;;;;;;5136045;27;20217;-74
2022/06/10 04:10:29;;;;;;;4.07;1.63;;;-39.30;99.90;;;;;;5136850;27;20645;-71
2022/06/10 04:12:56;;;;;;;6.30;2.90;;;-39.10;99.90;;;;;;5135821;27;20208;-74
2022/06/10 04:15:27;;;;;;;6.10;2.07;;;-40.00;99.90;;;;;;5136909;27;20572;-74
2022/06/10 04:17:55;;;;;;;9.23;2.13;;;-40.00;99.90;;;;;;5136022;27;20192;-73
2022/06/10 04:20:28;;;;;;;3.83;1.93;;;-40.00;99.90;;;;;;5136728;27;20165;-72
2022/06/10 04:22:54;;;;;;;7.00;2.47;;;-40.00;99.90;;;;;;5136989;27;20184;-67
2022/06/10 04:25:20;;;;;;;5.13;2.03;;;-40.00;99.90;;;;;;5136633;27;20516;-69
2022/06/10 04:27:46;;;;;;;4.37;2.13;;;-40.00;99.90;;;;;;5136539;27;20222;-77
2022/06/10 04:30:35;;;;;;;3.97;1.90;;;-40.00;99.90;;;;;;5136242;27;20161;-74
2022/06/10 04:33:01;;;;;;;4.10;1.73;;;-40.00;99.90;;;;;;5136786;27;20193;-71
2022/06/10 04:35:28;;;;;;;8.07;1.97;;;-40.00;99.90;;;;;;5136450;27;20165;-72
2022/06/10 04:37:55;;;;;;;4.63;2.17;;;-40.00;99.90;;;;;;5135575;27;20233;-77
2022/06/10 04:40:26;;;;;;;5.90;2.03;;;-40.00;99.90;;;;;;5136552;27;20161;-75
2022/06/10 04:42:52;;;;;;;3.03;1.67;;;-40.00;99.90;;;;;;5136439;27;20245;-69
2022/06/10 04:45:22;;;;;;;4.00;1.77;;;-40.00;99.90;;;;;;5136519;27;20564;-71
2022/06/10 04:47:47;;;;;;;3.07;1.43;;;-40.00;99.90;;;;;;5135548;27;20165;-76
2022/06/10 04:50:15;;;;;;;10.80;1.93;;;-40.00;99.90;;;;;;5136623;27;20173;-68
2022/06/10 04:52:41;;;;;;;8.13;1.40;;;-40.00;99.90;;;;;;5136475;27;20196;-77
2022/06/10 04:55:08;;;;;;;3.23;1.90;;;-40.00;99.90;;;;;;5136565;27;20165;-73
2022/06/10 04:57:36;;;;;;;6.57;1.40;;;-40.00;99.90;;;;;;5135967;27;20161;-72
2022/06/10 05:00:05;;;;;;;2.30;1.13;;;-40.00;99.90;;;;;;5136622;27;20161;-70
2022/06/10 05:02:30;;;;;;;4.97;1.80;;;-40.00;99.90;;;;;;5135260;27;20521;-72
2022/06/10 05:04:56;;;;;;;5.67;1.90;;;-40.00;99.90;;;;;;5136338;27;20177;-72
2022/06/10 05:07:22;;;;;;;5.53;2.00;;;-40.00;99.90;;;;;;5136325;27;20577;-76
2022/06/10 05:09:48;;;;;;;6.37;2.07;;;-40.00;99.90;;;;;;5136205;27;20260;-67
2022/06/10 05:12:14;;;;;;;4.03;1.43;;;-40.00;99.90;;;;;;5136259;27;20197;-67
2022/06/10 05:14:39;;;;;;;5.83;2.20;;;-40.00;99.90;;;;;;5135308;27;20256;-73
2022/06/10 05:17:05;;;;;;;4.67;1.70;;;-40.00;99.90;;;;;;5136263;27;20168;-68
2022/06/10 05:19:31;;;;;;;7.17;2.00;;;-40.00;99.90;;;;;;5136176;27;20170;-73
2022/06/10 05:21:57;;;;;;;5.73;2.83;;;-40.00;99.70;;;;;;5136297;27;20170;-74
2022/06/10 05:24:23;;;;;;;3.50;1.77;;;-40.00;99.60;;;;;;5136037;27;20169;-73
2022/06/10 05:26:49;;;;;;;5.33;1.50;;;-40.00;99.80;;;;;;5135005;27;20165;-73
2022/06/10 05:29:15;;;;;;;2.70;1.90;;;-40.00;99.90;;;;;;5136137;27;20177;-66
2022/06/10 05:31:41;;;;;;;11.00;2.30;;;-40.00;99.90;;;;;;5135867;27;20197;-78
2022/06/10 05:36:52;;;;;;;5.93;2.07;;;-40.00;99.50;;;;;;5136234;28;20338;-74
2022/06/10 05:39:18;;;;;;;7.93;2.40;;;-40.00;99.10;;;;;;5135827;27;20248;-68
2022/06/10 05:44:28;;;;;;;8.53;2.50;;;-40.00;99.40;;;;;;5139733;27;20172;-67
2022/06/10 05:46:55;;;;;;;9.27;2.63;;;-40.00;98.90;;;;;;5139387;27;20185;-67
2022/06/10 05:49:22;;;;;;;7.30;2.97;;;-40.00;99.60;;;;;;5135922;27;20162;-68
2022/06/10 05:51:48;;;;;;;7.57;2.50;;;-40.00;99.90;;;;;;5138210;27;20309;-67
2022/06/10 05:54:15;;;;;;;5.37;1.77;;;-40.00;99.10;;;;;;5138478;27;20248;-69
2022/06/10 05:56:43;;;;;;;3.73;2.33;;;-40.00;98.80;;;;;;5139001;27;20162;-66
2022/06/10 05:59:10;;;;;;;9.87;2.47;;;-40.00;99.20;;;;;;5138993;27;20827;-70
2022/06/10 06:01:36;;;;;;;8.27;3.03;;;-40.00;98.10;;;;;;5139191;27;20166;-70
2022/06/10 06:04:02;;;;;;;5.67;2.17;;;-40.00;97.70;;;;;;5139391;27;20218;-67
2022/06/10 06:06:28;;;;;;;11.77;3.13;;;-40.00;97.50;;;;;;5139330;27;20256;-73
2022/06/10 06:08:54;;;;;;;5.13;2.37;;;-40.00;97.50;;;;;;5139014;27;20632;-68
2022/06/10 06:11:20;;;;;;;4.80;1.87;;;-40.00;97.80;;;;;;5139275;27;20189;-71
2022/06/10 06:13:45;;;;;;;3.77;2.43;;;-40.00;97.80;;;;;;5139285;27;20164;-75
2022/06/10 06:16:14;;;;;;;6.50;1.93;;;-40.00;97.40;;;;;;5139343;27;20165;-72
2022/06/10 06:18:40;;;;;;;3.50;1.70;;;-40.00;97.70;;;;;;5138916;27;20161;-70
2022/06/10 06:21:06;;;;;;;9.47;2.97;;;-40.00;96.90;;;;;;5137993;27;20169;-71
2022/06/10 06:23:32;;;;;;;2.77;2.27;;;-40.00;97.90;;;;;;5138678;27;20211;-74
2022/06/10 06:25:58;;;;;;;5.87;2.57;;;-40.00;98.60;;;;;;5135622;27;20173;-70
2022/06/10 06:28:24;;;;;;;5.90;2.47;;;-40.00;97.50;;;;;;5137860;27;20173;-77
2022/06/10 06:30:50;;;;;;;7.00;2.20;;;-40.00;97.60;;;;;;5137248;27;20172;-76
2022/06/10 06:33:16;;;;;;;7.53;2.63;;;-40.00;97.90;;;;;;5138556;27;20222;-75
2022/06/10 06:35:47;;;;;;;14.73;2.90;;;-40.00;97.40;;;;;;5138657;27;20222;-73
2022/06/10 06:38:14;;;;;;;14.53;3.27;;;-40.00;98.40;;;;;;5138308;27;20189;-76
2022/06/10 06:40:41;;;;;;;7.33;2.80;;;-40.00;97.60;;;;;;5138713;27;20172;-73
2022/06/10 06:43:11;;;;;;;8.07;2.40;;;-40.00;97.80;;;;;;5138418;27;20169;-73
2022/06/10 06:45:38;;;;;;;7.27;1.90;;;-40.00;97.90;;;;;;5137145;27;20264;-71
2022/06/10 06:48:08;;;;;;;4.37;2.00;;;-40.00;97.90;;;;;;5138056;27;20241;-73
2022/06/10 06:50:36;;;;;;;7.13;3.70;;;-40.00;97.80;;;;;;5138531;27;20173;-69
2022/06/10 06:53:02;;;;;;;7.87;3.13;;;-40.00;96.80;;;;;;5139572;27;20201;-69
2022/06/10 06:55:28;;;;;;;8.27;3.13;;;-40.00;97.20;;;;;;5138744;27;20242;-68
2022/06/10 06:57:54;;;;;;;3.20;2.33;;;-40.00;97.90;;;;;;5138101;27;20465;-71
2022/06/10 07:00:20;;;;;;;10.17;2.93;;;-40.00;97.80;;;;;;5138098;27;20173;-71
2022/06/10 07:02:46;;;;;;;4.03;2.10;;;-40.00;97.30;;;;;;5138122;27;20174;-74
2022/06/10 07:05:12;;;;;;;6.73;1.63;;;-40.00;97.90;;;;;;5138163;27;20226;-67
2022/06/10 07:07:39;;;;;;;6.10;2.20;;;-40.00;97.10;;;;;;5138496;27;20188;-75
2022/06/10 07:10:06;;;;;;;6.10;2.20;;;-40.00;97.70;;;;;;5149633;27;20178;-68
2022/06/10 07:12:32;;;;;;;7.27;1.80;;;-40.00;99.90;;;;;;5138033;27;20197;-75
2022/06/10 07:14:58;;;;;;;5.93;2.53;;;-40.00;99.90;;;;;;5137988;27;20165;-66
2022/06/10 07:17:24;;;;;;;7.00;2.47;;;-40.00;99.20;;;;;;5138070;27;20142;-63
2022/06/10 07:19:51;;;;;;;7.20;2.27;;;-40.00;99.90;;;;;;5137941;27;20154;-70
2022/06/10 07:22:18;;;;;;;6.47;2.47;;;-40.00;99.90;;;;;;5137733;27;20173;-68
2022/06/10 07:24:43;;;;;;;6.73;2.40;;;-40.00;98.70;;;;;;5136899;27;20177;-63
2022/06/10 07:27:12;;;;;;;7.53;2.87;;;-40.00;99.10;;;;;;5137906;27;20259;-67
2022/06/10 07:29:37;;;;;;;9.07;2.70;;;-40.00;98.30;;;;;;5136679;27;20181;-68
2022/06/10 07:32:04;;;;;;;6.90;2.90;;;-40.00;96.70;;;;;;5138218;27;20506;-73
2022/06/10 07:34:29;;;;;;;5.80;2.73;;;-40.00;97.10;;;;;;5137523;27;20165;-70
2022/06/10 07:36:55;;;;;;;11.90;2.47;;;-40.00;96.70;;;;;;5153475;27;20185;-69
2022/06/10 07:39:21;;;;;;;8.63;2.73;;;-40.00;97.80;;;;;;5141626;27;20253;-71
2022/06/10 07:42:02;;;;;;;6.57;2.47;;;-40.00;98.50;;;;;;5148987;27;20180;-69
2022/06/10 07:44:36;;;;;;;7.63;2.57;;;-40.00;97.40;;;;;;5157842;27;20700;-72
2022/06/10 07:47:07;;;;;;;11.93;3.80;;;-40.00;97.40;;;;;;5142865;27;20177;-72
2022/06/10 07:49:33;;;;;;;20.60;3.80;;;-40.00;97.50;;;;;;5137001;27;20158;-69
2022/06/10 07:51:59;;;;;;;5.03;2.90;;;-40.00;96.70;;;;;;5150541;27;20204;-69
2022/06/10 07:54:27;;;;;;;5.80;3.10;;;-40.00;96.50;;;;;;5156262;27;20222;-67
2022/06/10 07:56:53;;;;;;;8.87;3.40;;;-40.00;95.80;;;;;;5144445;27;20172;-68
2022/06/10 07:59:19;;;;;;;5.27;2.87;;;-40.00;96.50;;;;;;5157985;27;20187;-71
2022/06/10 08:01:45;;;;;;;5.93;3.33;;;-40.00;97.50;;;;;;5157510;27;20587;-77
2022/06/10 08:04:11;;;;;;;10.17;3.87;;;-40.00;97.90;;;;;;5156050;27;20184;-67
2022/06/10 08:06:43;;;;;;;7.07;3.13;;;-40.00;97.80;;;;;;5150812;27;20649;-67
2022/06/10 08:09:09;;;;;;;5.40;2.57;;;-40.00;98.50;;;;;;5144245;27;20786;-70
2022/06/10 08:11:36;;;;;;;7.47;4.07;;;-40.00;98.00;;;;;;5136771;27;20224;-67
2022/06/10 08:14:03;;;;;;;9.93;4.50;;;-40.00;98.60;;;;;;5135657;27;20176;-68
2022/06/10 08:16:29;;;;;;;9.70;4.40;;;-40.00;97.90;;;;;;5139718;27;20192;-66
2022/06/10 08:18:55;;;;;;;11.23;3.07;;;-40.00;97.60;;;;;;5135547;27;20208;-67
2022/06/10 08:22:32;;;;;;;6.90;4.17;;;-40.00;97.50;;;;;;5136748;27;20169;-72
2022/06/10 08:24:17;;;;;;;8.50;3.57;;;-40.00;98.40;;;;;;5136667;27;20193;-80
2022/06/10 08:26:42;;;;;;;6.83;4.37;;;-40.00;97.90;;;;;;5137234;27;20173;-69
2022/06/10 08:29:10;;;;;;;11.80;4.77;;;-40.00;99.10;;;;;;5155379;27;20187;-80
2022/06/10 08:31:37;;;;;;;10.93;4.43;;;-40.00;99.20;;;;;;5145824;27;20266;-77
2022/06/10 08:34:03;;;;;;;11.67;3.97;;;-40.00;99.20;;;;;;5142559;27;20201;-77
2022/06/10 08:36:31;;;;;;;13.53;4.30;;;-40.00;98.90;;;;;;5137546;27;20540;-68
2022/06/10 08:38:57;;;;;;;11.47;4.60;;;-40.00;99.40;;;;;;5134232;27;20181;-77
2022/06/10 08:41:33;;;;;;;8.37;4.00;;;-40.00;99.40;;;;;;5134726;27;20464;-68
2022/06/10 08:44:25;;;;;;;16.63;5.27;;;-40.00;98.30;;;;;;5138810;27;20189;-72
2022/06/10 08:46:51;;;;;;;5.40;3.93;;;-40.00;99.20;;;;;;5135078;27;20185;-73
2022/06/10 08:49:24;;;;;;;4.67;3.73;;;-40.00;98.30;;;;;;5136180;27;20180;-70
2022/06/10 08:51:58;;;;;;;8.60;4.20;;;-40.00;97.60;;;;;;5139607;27;20189;-80
2022/06/10 08:54:40;;;;;;;12.23;5.30;;;-40.00;98.50;;;;;;5128678;27;20177;-75
2022/06/10 08:57:31;;;;;;;8.77;4.50;;;-40.00;99.60;;;;;;5138811;27;20173;-79
2022/06/10 08:59:59;;;;;;;9.60;5.20;;;-40.00;99.20;;;;;;5126536;28;20659;-72
2022/06/10 09:03:09;;;;;;;6.13;4.53;;;-40.00;98.30;;;;;;5139074;27;20203;-69
2022/06/10 09:05:39;;;;;;;6.90;3.73;;;-40.00;97.50;;;;;;5128329;27;20192;-78
2022/06/10 09:08:14;;;;;;;8.37;4.63;;;-40.00;98.00;;;;;;5136673;27;20201;-71
2022/06/10 09:10:50;;;;;;;12.03;5.30;;;-40.00;98.10;;;;;;5134618;27;20169;-77
2022/06/10 09:13:35;;;;;;;10.77;4.80;;;-40.00;98.30;;;;;;5142116;27;20716;-73
2022/06/10 09:16:29;;;;;;;7.83;4.20;;;-40.00;97.30;;;;;;5127430;27;20196;-67
2022/06/10 09:19:15;;;;;;;8.63;4.83;;;-40.00;96.60;;;;;;5137328;27;20196;-68
2022/06/10 09:21:53;;;;;;;6.90;5.17;;;-40.00;97.60;;;;;;5131701;27;20596;-69
2022/06/10 09:24:19;;;;;;;17.00;5.40;;;-40.00;95.20;;;;;;5136573;27;20180;-69
2022/06/10 09:26:53;;;;;;;9.20;5.20;;;-40.00;95.30;;;;;;5140772;27;20389;-69
2022/06/10 09:29:19;;;;;;;10.50;6.20;;;-40.00;95.80;;;;;;5142463;27;20176;-70
2022/06/10 09:31:45;;;;;;;9.67;5.17;;;-40.00;96.20;;;;;;5150035;27;20213;-70
2022/06/10 09:34:49;;;;;;;8.60;6.20;;;-40.00;95.50;;;;;;5138441;27;20265;-77
2022/06/10 09:37:17;;;;;;;10.20;5.27;;;-40.00;93.30;;;;;;5111162;27;20207;-73
2022/06/10 09:43:15;;;;;;;14.90;6.00;;;-40.00;94.90;;;;;;5131780;27;20192;-78
2022/06/10 09:46:11;;;;;;;10.70;6.30;;;-40.00;96.20;;;;;;5141099;27;20177;-80
2022/06/10 09:49:12;;;;;;;8.03;5.13;;;-40.00;96.70;;;;;;5137113;27;20185;-78
2022/06/10 09:52:15;;;;;;;6.40;4.90;;;-40.00;95.10;;;;;;5128780;27;20608;-82
2022/06/10 09:55:16;;;;;;;9.00;4.73;;;-40.00;96.80;;;;;;5146368;27;20298;-75
2022/06/10 09:58:00;;;;;;;10.87;5.07;;;-40.00;96.80;;;;;;5138882;27;20177;-73
2022/06/10 10:00:48;;;;;;;11.90;6.07;;;-40.00;96.60;;;;;;5134316;27;20253;-79
2022/06/10 10:03:28;;;;;;;11.17;5.50;;;-40.00;96.90;;;;;;5136827;27;20185;-76
2022/06/10 10:05:57;;;;;;;7.77;5.27;;;-40.00;97.70;;;;;;5140185;27;20181;-74
2022/06/10 10:08:34;;;;;;;17.90;6.17;;;-40.00;96.80;;;;;;5138482;27;20231;-73
2022/06/10 10:11:21;;;;;;;9.57;4.80;;;-40.00;97.00;;;;;;5128485;27;20204;-70
2022/06/10 10:14:15;;;;;;;8.60;4.67;;;-40.00;96.00;;;;;;5138987;27;20177;-70
2022/06/10 10:17:19;;;;;;;32.27;5.07;;;-40.00;94.60;;;;;;5137447;27;20165;-70
2022/06/10 10:19:51;;;;;;;8.87;4.20;;;-40.00;94.30;;;;;;5137697;27;20165;-69
2022/06/10 10:22:38;;;;;;;10.30;5.07;;;-40.00;95.00;;;;;;5137585;27;20584;-69
2022/06/10 10:25:05;;;;;;;6.90;4.27;;;-40.00;95.10;;;;;;5138802;27;20476;-72
2022/06/10 10:27:33;;;;;;;9.30;3.57;;;-40.00;93.40;;;;;;5144355;27;20178;-71
2022/06/10 10:30:03;;;;;;;11.50;3.10;;;-40.00;93.70;;;;;;5137368;27;20844;-69
2022/06/10 10:32:35;;;;;;;7.50;3.77;;;-40.00;93.40;;;;;;5138636;27;20252;-70
2022/06/10 10:35:11;;;;;;;13.13;5.93;;;-40.00;93.00;;;;;;5135473;27;20636;-69
2022/06/10 10:37:38;;;;;;;11.03;5.03;;;-40.00;92.40;;;;;;5130552;27;20249;-69
2022/06/10 10:40:17;;;;;;;7.23;3.57;;;-40.00;93.60;;;;;;5139025;27;20261;-70
2022/06/10 10:42:45;;;;;;;7.40;3.97;;;-40.00;93.30;;;;;;5132969;27;20236;-69
2022/06/10 10:45:26;;;;;;;5.57;2.80;;;-40.00;92.60;;;;;;5134460;27;20736;-71
2022/06/10 10:48:02;;;;;;;5.63;3.50;;;-40.00;91.90;;;;;;5142705;27;20234;-72
2022/06/10 10:50:33;;;;;;;8.27;3.83;;;-40.00;92.20;;;;;;5140139;27;20172;-70
2022/06/10 10:53:05;;;;;;;5.17;3.60;;;-40.00;91.10;;;;;;5143177;27;20261;-71
2022/06/10 10:55:37;;;;;;;8.60;2.70;;;-40.00;90.70;;;;;;5139014;27;20213;-70
2022/06/10 10:58:14;;;;;;;6.93;2.87;;;-40.00;90.50;;;;;;5158664;27;20165;-71
2022/06/10 11:00:43;;;;;;;4.83;3.07;;;-40.00;90.80;;;;;;5151700;27;20539;-70
2022/06/10 11:03:31;;;;;;;6.97;3.43;;;-40.00;90.80;;;;;;5155202;27;20165;-73
2022/06/10 11:06:00;;;;;;;5.73;3.10;;;-40.00;90.70;;;;;;5142178;27;20205;-74
2022/06/10 11:08:30;;;;;;;6.90;3.67;;;-40.00;90.00;;;;;;5141995;27;20346;-71
2022/06/10 11:11:36;;;;;;;4.23;2.60;;;-40.00;87.40;;;;;;5137876;27;20213;-72
2022/06/10 11:14:15;;;;;;;8.43;2.97;;;-40.00;87.00;;;;;;5143953;27;20561;-73
2022/06/10 11:16:44;;;;;;;5.77;2.63;;;-40.00;87.70;;;;;;5149639;27;20172;-72
2022/06/10 11:19:14;;;;;;;10.20;3.20;;;-40.00;84.40;;;;;;5143443;27;20169;-71
2022/06/10 11:22:10;;;;;;;12.07;3.50;;;-40.00;81.90;;;;;;5149007;27;20194;-71
2022/06/10 11:24:43;;;;;;;7.17;2.90;;;-40.00;84.70;;;;;;5111743;27;20185;-70
2022/06/10 11:27:29;;;;;;;5.07;2.37;;;-40.00;82.40;;;;;;5136511;27;20564;-74
2022/06/10 11:30:15;;;;;;;9.23;2.80;;;-40.00;83.00;;;;;;5137142;27;20229;-71
2022/06/10 11:32:49;;;;;;;3.97;2.83;;;-40.00;79.20;;;;;;5137577;27;20276;-70
2022/06/10 11:35:32;;;;;;;8.53;4.27;;;-40.00;76.80;;;;;;5135415;27;20205;-71
2022/06/10 11:38:26;;;;;;;7.93;2.97;;;-40.00;76.80;;;;;;5136433;27;20535;-75
2022/06/10 11:40:55;;;;;;;4.17;2.33;;;-40.00;78.00;;;;;;5136235;27;20173;-76
2022/06/10 11:43:43;;;;;;;6.57;2.23;;;-40.00;80.20;;;;;;5152147;27;20183;-74
2022/06/10 11:46:19;;;;;;;5.43;2.73;;;-40.00;83.00;;;;;;5157437;27;20283;-71
2022/06/10 11:48:55;;;;;;;7.47;3.13;;;-40.00;87.90;;;;;;5150421;27;20207;-72
2022/06/10 11:51:34;;;;;;;4.43;2.77;;;-40.00;88.80;;;;;;5149331;27;20205;-71
2022/06/10 11:54:26;;;;;;;4.47;2.77;;;-40.00;89.40;;;;;;5137108;27;20187;-70
2022/06/10 12:00:17;;;;;;;7.73;3.40;;;-40.00;85.80;;;;;;5124813;27;20195;-71
2022/06/10 12:02:49;;;;;;;7.77;2.80;;;-40.00;87.50;;;;;;5148272;27;20189;-71
2022/06/10 12:05:46;;;;;;;6.73;3.00;;;-40.00;88.80;;;;;;5136172;27;20189;-70
2022/06/10 12:08:21;;;;;;;4.93;4.03;;;-40.00;88.40;;;;;;5136766;27;20250;-74
2022/06/10 12:10:57;;;;;;;6.20;2.50;;;-40.00;90.40;;;;;;5135885;27;20479;-72
2022/06/10 12:13:24;;;;;;;14.43;3.13;;;-40.00;90.00;;;;;;5136785;27;20199;-73
2022/06/10 12:15:57;;;;;;;7.33;3.13;;;-40.00;87.70;;;;;;5136360;27;20166;-72
2022/06/10 12:18:29;;;;;;;5.83;2.07;;;-40.00;84.60;;;;;;5136660;27;20218;-72
2022/06/10 12:21:03;;;;;;;4.77;2.07;;;-40.00;78.10;;;;;;5136590;27;20628;-73
2022/06/10 12:23:35;;;;;;;4.63;2.57;;;-40.00;75.90;;;;;;5135524;27;20180;-73
2022/06/10 12:26:37;;;;;;;2.80;1.27;;;-40.00;76.40;;;;;;5135087;27;20256;-72
2022/06/10 12:29:12;;;;;;;4.17;1.77;;;-40.00;74.10;;;;;;5136596;27;20171;-72
2022/06/10 12:31:58;;;;;;;9.20;2.20;;;-40.00;71.10;;;;;;5136575;27;20188;-73
2022/06/10 12:34:55;;;;;;;2.97;1.67;;;-40.00;71.50;;;;;;5136587;27;20158;-71
2022/06/10 12:37:52;;;;;;;6.37;2.30;;;-40.00;67.60;;;;;;5136549;27;20268;-71
2022/06/10 12:40:17;;;;;;;6.13;2.60;;;-40.00;72.10;;;;;;5136169;27;20172;-72
2022/06/10 12:42:55;;;;;;;3.23;2.10;;;-40.00;71.60;;;;;;5130794;27;20181;-72
2022/06/10 12:45:41;;;;;;;6.87;1.97;;;-40.00;71.50;;;;;;5141924;27;20599;-71
2022/06/10 12:48:21;;;;;;;5.90;2.10;;;-40.00;67.00;;;;;;5135061;27;20246;-72
2022/06/10 12:50:55;;;;;;;4.73;2.10;;;-40.00;65.20;;;;;;5140781;27;20185;-72
2022/06/10 12:53:53;;;;;;;5.47;1.80;;;-40.00;61.50;;;;;;5138379;27;20240;-71
2022/06/10 12:56:19;;;;;;;3.20;1.83;;;-40.00;63.10;;;;;;5138188;27;20174;-72
2022/06/10 12:59:06;;;;;;;4.37;2.37;;;-40.00;65.90;;;;;;5143439;27;20227;-72
2022/06/10 13:01:32;;;;;;;2.30;1.90;;;-40.00;65.30;;;;;;5127751;27;20227;-72
2022/06/10 13:04:11;;;;;;;2.37;1.77;;;-40.00;62.60;;;;;;5139112;27;20197;-72
2022/06/10 13:06:43;;;;;;;4.27;1.40;;;-40.00;59.70;;;;;;5139178;27;20181;-72
2022/06/10 13:09:15;;;;;;;4.57;1.40;;;-40.00;59.30;;;;;;5138106;27;20212;-72
2022/06/10 13:11:55;;;;;;;3.53;1.53;;;-40.00;61.80;;;;;;5138432;27;20197;-71
2022/06/10 13:14:37;;;;;;;4.47;1.37;;;-40.00;66.40;;;;;;5139360;27;20172;-75
2022/06/10 13:17:22;;;;;;;5.33;2.07;;;-40.00;68.70;;;;;;5138640;27;20169;-74
2022/06/10 13:19:54;;;;;;;3.07;2.47;;;-4.70;89.80;;;;;;5141688;27;20591;-70
2022/06/10 13:22:23;;;;;;;1.67;1.57;;;24.70;99.10;;;;;;5136245;27;20742;-70
2022/06/10 13:24:54;;;;;;;2.47;2.10;;;-40.00;70.60;;;;;;5135551;27;20189;-71
2022/06/10 13:27:32;;;;;;;2.07;1.43;;;-40.00;71.00;;;;;;5137043;27;20181;-74
2022/06/10 13:30:22;;;;;;;5.23;1.43;;;-40.00;73.50;;;;;;5126621;27;20177;-71